Time;durP1;ratioP1;P1;durP2;ratioP2;P2;SDS_P1;SDS_P2;PMS_P1;PMS_P2;Temp;Humidity;BMP_temperature;BMP_pressure;BME280_temperature;BME280_humidity;BME280_pressure;Samples;Min_cycle;Max_cycle;Signal;HPM_P1;HPM_P2
2023/08/13 00:00:34;;;;;;;2.40;2.30;;;;;;;;;;6067985;29;20301;-80
2023/08/13 00:03:38;;;;;;;3.38;2.28;;;;;;;;;;6068093;29;20443;-79
2023/08/13 00:06:42;;;;;;;2.28;2.20;;;;;;;;;;6068979;29;20305;-79
2023/08/13 00:09:46;;;;;;;3.70;2.47;;;;;;;;;;6068485;29;20312;-79
2023/08/13 00:12:50;;;;;;;2.22;2.13;;;;;;;;;;6069461;29;20614;-80
2023/08/13 00:15:56;;;;;;;2.67;2.20;;;;;;;;;;6068886;29;20301;-79
2023/08/13 00:19:00;;;;;;;3.05;2.40;;;;;;;;;;6068923;29;20300;-79
2023/08/13 00:22:04;;;;;;;2.42;2.33;;;;;;;;;;6068944;29;20312;-79
2023/08/13 00:25:13;;;;;;;2.55;2.28;;;;;;;;;;6068732;29;20317;-79
2023/08/13 00:28:17;;;;;;;2.22;2.13;;;;;;;;;;6069995;29;20301;-79
2023/08/13 00:31:22;;;;;;;3.58;2.33;;;;;;;;;;6069413;29;20301;-79
2023/08/13 00:34:26;;;;;;;5.93;2.20;;;;;;;;;;6056603;29;20437;-81
2023/08/13 00:37:31;;;;;;;2.33;2.20;;;;;;;;;;6045131;29;20294;-79
2023/08/13 00:40:35;;;;;;;3.22;2.60;;;;;;;;;;6045544;29;20298;-79
2023/08/13 00:43:40;;;;;;;2.67;2.20;;;;;;;;;;6044187;29;20301;-79
2023/08/13 00:46:45;;;;;;;2.45;2.25;;;;;;;;;;6045031;29;20301;-80
2023/08/13 00:49:50;;;;;;;3.40;2.10;;;;;;;;;;6045713;29;20305;-81
2023/08/13 00:52:56;;;;;;;2.42;2.25;;;;;;;;;;6046898;29;20293;-79
2023/08/13 00:56:01;;;;;;;2.85;2.38;;;;;;;;;;6045516;29;20609;-79
2023/08/13 00:59:05;;;;;;;2.78;2.58;;;;;;;;;;6030391;29;20306;-79
2023/08/13 01:02:10;;;;;;;4.00;2.40;;;;;;;;;;6046888;29;20302;-79
2023/08/13 01:05:15;;;;;;;2.08;1.95;;;;;;;;;;6046089;29;20313;-78
2023/08/13 01:08:24;;;;;;;2.85;2.72;;;;;;;;;;6045521;29;20334;-79
2023/08/13 01:11:35;;;;;;;2.50;2.30;;;;;;;;;;6062803;29;20297;-80
2023/08/13 01:14:42;;;;;;;2.90;2.70;;;;;;;;;;6068974;29;20307;-79
2023/08/13 01:17:49;;;;;;;3.33;2.80;;;;;;;;;;6070912;29;20306;-79
2023/08/13 01:20:53;;;;;;;2.72;2.50;;;;;;;;;;6070743;29;20346;-80
2023/08/13 01:23:58;;;;;;;2.95;2.75;;;;;;;;;;6070541;29;20304;-79
2023/08/13 01:27:10;;;;;;;2.92;2.50;;;;;;;;;;6071779;29;20309;-79
2023/08/13 01:30:16;;;;;;;2.85;2.67;;;;;;;;;;6072379;29;20607;-80
2023/08/13 01:33:27;;;;;;;4.75;2.67;;;;;;;;;;6067812;29;20299;-80
2023/08/13 01:36:32;;;;;;;2.70;2.50;;;;;;;;;;6047459;29;20278;-79
2023/08/13 01:39:37;;;;;;;3.08;2.58;;;;;;;;;;6048223;29;20608;-80
2023/08/13 01:42:41;;;;;;;3.03;2.65;;;;;;;;;;6048926;29;20274;-79
2023/08/13 01:45:45;;;;;;;2.92;2.45;;;;;;;;;;6048978;29;20294;-79
2023/08/13 01:48:49;;;;;;;2.80;2.60;;;;;;;;;;6047939;29;20444;-79
2023/08/13 01:51:53;;;;;;;2.95;2.22;;;;;;;;;;6048986;29;20301;-79
2023/08/13 01:54:58;;;;;;;3.80;2.60;;;;;;;;;;6048857;29;20301;-80
2023/08/13 01:58:02;;;;;;;2.75;2.47;;;;;;;;;;6047225;29;20293;-80
2023/08/13 02:01:07;;;;;;;2.60;2.40;;;;;;;;;;6048041;29;20294;-80
2023/08/13 02:04:10;;;;;;;2.83;2.60;;;;;;;;;;6047271;29;20334;-78
2023/08/13 02:07:15;;;;;;;2.88;2.50;;;;;;;;;;6048305;29;20297;-79
2023/08/13 02:10:20;;;;;;;2.50;2.40;;;;;;;;;;6053977;29;20293;-79
2023/08/13 02:13:24;;;;;;;2.70;2.50;;;;;;;;;;6069996;29;20302;-80
2023/08/13 02:16:28;;;;;;;3.28;2.22;;;;;;;;;;6070297;29;20305;-79
2023/08/13 02:19:33;;;;;;;2.60;2.40;;;;;;;;;;6070222;29;20293;-80
2023/08/13 02:22:38;;;;;;;2.72;2.63;;;;;;;;;;6071668;29;20310;-80
2023/08/13 02:25:43;;;;;;;3.00;2.50;;;;;;;;;;6069803;29;20309;-80
2023/08/13 02:28:47;;;;;;;2.53;2.50;;;;;;;;;;6070182;29;20490;-80
2023/08/13 02:31:51;;;;;;;2.40;2.30;;;;;;;;;;6069653;29;20324;-79
2023/08/13 02:34:55;;;;;;;3.42;2.83;;;;;;;;;;6070590;29;20297;-79
2023/08/13 02:37:58;;;;;;;4.28;2.58;;;;;;;;;;6071585;29;20621;-81
2023/08/13 02:41:04;;;;;;;2.78;2.67;;;;;;;;;;6071534;29;20293;-79
2023/08/13 02:44:08;;;;;;;4.55;2.80;;;;;;;;;;6070951;29;20333;-80
2023/08/13 02:47:12;;;;;;;3.30;2.78;;;;;;;;;;6070397;29;20316;-79
2023/08/13 02:50:16;;;;;;;3.05;2.78;;;;;;;;;;6069221;29;20468;-80
2023/08/13 02:53:19;;;;;;;2.67;2.58;;;;;;;;;;6070058;29;20296;-79
2023/08/13 02:56:25;;;;;;;2.40;2.30;;;;;;;;;;6073727;29;20301;-79
2023/08/13 02:59:29;;;;;;;2.72;2.50;;;;;;;;;;6070612;29;20380;-80
2023/08/13 03:02:33;;;;;;;2.40;2.20;;;;;;;;;;6054555;29;20305;-80
2023/08/13 03:05:37;;;;;;;2.97;2.78;;;;;;;;;;6060220;29;20308;-79
2023/08/13 03:08:40;;;;;;;4.05;2.70;;;;;;;;;;6047697;29;20302;-80
2023/08/13 03:11:46;;;;;;;2.80;2.60;;;;;;;;;;6063697;29;20297;-80
2023/08/13 03:14:50;;;;;;;3.15;3.00;;;;;;;;;;6053764;29;20595;-81
2023/08/13 03:17:54;;;;;;;3.70;2.30;;;;;;;;;;6069135;29;20304;-79
2023/08/13 03:21:00;;;;;;;2.88;2.55;;;;;;;;;;6048449;29;20301;-79
2023/08/13 03:24:05;;;;;;;2.95;2.75;;;;;;;;;;6046647;29;20308;-79
2023/08/13 03:27:10;;;;;;;3.10;2.58;;;;;;;;;;6049775;29;20294;-79
2023/08/13 03:30:15;;;;;;;2.85;2.75;;;;;;;;;;6051980;29;20306;-79
2023/08/13 03:33:19;;;;;;;2.70;2.50;;;;;;;;;;6057457;29;20368;-79
2023/08/13 03:36:24;;;;;;;3.85;2.25;;;;;;;;;;6070028;29;20302;-79
2023/08/13 03:39:28;;;;;;;4.15;2.20;;;;;;;;;;6055441;29;20298;-79
2023/08/13 03:42:33;;;;;;;3.75;2.17;;;;;;;;;;6055342;29;20274;-78
2023/08/13 03:45:38;;;;;;;2.20;2.10;;;;;;;;;;6055561;29;20571;-79
2023/08/13 03:48:42;;;;;;;3.42;1.95;;;;;;;;;;6056587;29;20380;-80
2023/08/13 03:51:46;;;;;;;2.55;2.38;;;;;;;;;;6056374;29;20245;-79
2023/08/13 03:54:51;;;;;;;5.40;2.33;;;;;;;;;;6056330;29;20544;-79
2023/08/13 03:57:57;;;;;;;2.22;1.98;;;;;;;;;;6055679;29;20305;-79
2023/08/13 04:01:05;;;;;;;2.63;2.42;;;;;;;;;;6057577;29;20294;-79
2023/08/13 04:04:11;;;;;;;2.20;2.10;;;;;;;;;;6055665;29;20294;-79
2023/08/13 04:07:15;;;;;;;2.05;2.05;;;;;;;;;;6055573;29;20302;-79
2023/08/13 04:10:19;;;;;;;2.60;2.00;;;;;;;;;;6061295;29;20305;-79
2023/08/13 04:13:24;;;;;;;2.72;2.05;;;;;;;;;;6077692;29;20301;-79
2023/08/13 04:16:29;;;;;;;3.17;2.13;;;;;;;;;;6075396;29;20289;-79
2023/08/13 04:19:33;;;;;;;2.05;2.03;;;;;;;;;;6071911;29;20300;-78
2023/08/13 04:22:36;;;;;;;2.17;2.08;;;;;;;;;;6069931;29;20330;-78
2023/08/13 04:25:41;;;;;;;2.22;2.00;;;;;;;;;;6070960;29;20300;-79
2023/08/13 04:28:47;;;;;;;3.40;2.20;;;;;;;;;;6071785;29;20305;-79
2023/08/13 04:31:52;;;;;;;3.70;1.90;;;;;;;;;;6071651;29;20297;-79
2023/08/13 04:34:56;;;;;;;4.80;2.38;;;;;;;;;;6055195;29;20309;-79
2023/08/13 04:38:00;;;;;;;3.47;1.90;;;;;;;;;;6048939;29;20330;-79
2023/08/13 04:41:05;;;;;;;2.20;2.03;;;;;;;;;;6049097;29;20306;-79
2023/08/13 04:44:15;;;;;;;2.63;2.42;;;;;;;;;;6045923;29;20294;-79
2023/08/13 04:47:20;;;;;;;3.63;2.08;;;;;;;;;;6046618;29;20317;-81
2023/08/13 04:50:24;;;;;;;2.40;2.20;;;;;;;;;;6045066;29;20610;-79
2023/08/13 04:53:28;;;;;;;5.30;2.60;;;;;;;;;;6045387;29;20305;-79
2023/08/13 04:56:32;;;;;;;3.17;1.98;;;;;;;;;;6049642;29;20301;-78
2023/08/13 04:59:39;;;;;;;2.47;2.30;;;;;;;;;;6034073;29;20559;-79
2023/08/13 05:02:43;;;;;;;3.33;2.40;;;;;;;;;;6034537;29;20524;-79
2023/08/13 05:05:47;;;;;;;2.97;2.42;;;;;;;;;;6050809;29;20305;-78
2023/08/13 05:08:51;;;;;;;2.40;2.20;;;;;;;;;;6049154;29;20305;-79
2023/08/13 05:11:56;;;;;;;2.70;2.40;;;;;;;;;;6068711;29;20461;-79
2023/08/13 05:15:01;;;;;;;2.13;2.10;;;;;;;;;;6071346;29;20494;-80
2023/08/13 05:18:06;;;;;;;2.50;2.22;;;;;;;;;;6071447;29;20293;-80
2023/08/13 05:21:10;;;;;;;2.88;2.45;;;;;;;;;;6071949;29;20305;-81
2023/08/13 05:24:14;;;;;;;2.97;2.75;;;;;;;;;;6071934;29;20317;-80
2023/08/13 05:27:18;;;;;;;2.58;2.42;;;;;;;;;;6074650;29;20332;-80
2023/08/13 05:30:24;;;;;;;2.65;2.45;;;;;;;;;;6073193;29;20308;-80
2023/08/13 05:33:28;;;;;;;2.22;2.22;;;;;;;;;;6066619;29;20503;-80
2023/08/13 05:36:32;;;;;;;2.63;2.42;;;;;;;;;;6047558;29;20274;-80
2023/08/13 05:39:36;;;;;;;3.05;2.75;;;;;;;;;;6048033;29;20313;-80
2023/08/13 05:42:40;;;;;;;2.97;2.65;;;;;;;;;;6048058;29;20270;-80
2023/08/13 05:45:46;;;;;;;3.30;3.03;;;;;;;;;;6047979;29;20298;-80
2023/08/13 05:48:50;;;;;;;3.28;2.97;;;;;;;;;;6047836;29;20297;-80
2023/08/13 05:51:55;;;;;;;3.40;3.10;;;;;;;;;;6048371;29;20423;-79
2023/08/13 05:54:58;;;;;;;3.17;2.88;;;;;;;;;;6048848;29;20301;-79
2023/08/13 05:58:02;;;;;;;2.90;2.70;;;;;;;;;;6051583;29;20297;-80
2023/08/13 06:01:07;;;;;;;3.22;3.03;;;;;;;;;;6049137;29;20570;-79
2023/08/13 06:04:11;;;;;;;3.95;2.95;;;;;;;;;;6048458;29;20578;-79
2023/08/13 06:07:15;;;;;;;4.53;3.33;;;;;;;;;;6048254;29;20313;-79
2023/08/13 06:10:19;;;;;;;2.92;2.72;;;;;;;;;;6048101;29;20315;-79
2023/08/13 06:13:22;;;;;;;2.92;2.83;;;;;;;;;;6048126;29;20302;-79
2023/08/13 06:16:28;;;;;;;3.97;3.03;;;;;;;;;;6048972;29;20297;-79
2023/08/13 06:19:34;;;;;;;3.17;2.92;;;;;;;;;;6048121;29;20343;-79
2023/08/13 06:22:38;;;;;;;3.50;2.90;;;;;;;;;;6047412;29;20294;-79
2023/08/13 06:25:42;;;;;;;3.83;2.83;;;;;;;;;;6048049;29;20582;-79
2023/08/13 06:28:45;;;;;;;3.55;2.83;;;;;;;;;;6048098;29;20309;-79
2023/08/13 06:31:51;;;;;;;2.80;2.60;;;;;;;;;;6048453;29;20557;-79
2023/08/13 06:34:55;;;;;;;5.25;2.92;;;;;;;;;;6063573;29;20325;-79
2023/08/13 06:37:58;;;;;;;3.03;2.78;;;;;;;;;;6070882;29;20316;-79
2023/08/13 06:41:06;;;;;;;5.40;2.70;;;;;;;;;;6071558;29;20301;-79
2023/08/13 06:44:17;;;;;;;4.82;2.72;;;;;;;;;;6070682;29;20292;-79
2023/08/13 06:47:23;;;;;;;3.70;3.20;;;;;;;;;;6071801;29;20297;-79
2023/08/13 06:50:27;;;;;;;3.67;2.55;;;;;;;;;;6071865;29;20309;-79
2023/08/13 06:53:31;;;;;;;4.38;2.92;;;;;;;;;;6071942;29;20301;-79
2023/08/13 06:56:36;;;;;;;3.42;3.13;;;;;;;;;;6072366;29;20301;-79
2023/08/13 06:59:40;;;;;;;6.05;3.15;;;;;;;;;;6070340;29;20305;-79
2023/08/13 07:02:46;;;;;;;6.57;3.13;;;;;;;;;;6071281;29;20298;-79
2023/08/13 07:05:52;;;;;;;5.32;3.17;;;;;;;;;;6069654;29;20313;-79
2023/08/13 07:08:56;;;;;;;3.10;2.70;;;;;;;;;;6069283;29;20297;-79
2023/08/13 07:12:00;;;;;;;5.15;3.30;;;;;;;;;;6070930;29;20308;-79
2023/08/13 07:15:04;;;;;;;4.82;3.15;;;;;;;;;;6070575;29;20338;-78
2023/08/13 07:18:09;;;;;;;3.50;3.20;;;;;;;;;;6069432;29;20301;-80
2023/08/13 07:21:13;;;;;;;3.10;2.90;;;;;;;;;;6070822;29;20316;-80
2023/08/13 07:24:17;;;;;;;3.22;2.92;;;;;;;;;;6069773;29;20297;-79
2023/08/13 07:27:21;;;;;;;6.05;3.13;;;;;;;;;;6070491;29;20310;-79
2023/08/13 07:30:25;;;;;;;6.18;3.17;;;;;;;;;;6069656;29;20476;-79
2023/08/13 07:33:31;;;;;;;4.55;3.15;;;;;;;;;;6065518;29;20293;-79
2023/08/13 07:36:34;;;;;;;6.97;3.70;;;;;;;;;;6046260;29;20274;-79
2023/08/13 07:39:38;;;;;;;10.88;3.20;;;;;;;;;;6046549;29;20297;-79
2023/08/13 07:42:42;;;;;;;6.32;3.65;;;;;;;;;;6047209;29;20251;-79
2023/08/13 07:45:46;;;;;;;5.68;3.42;;;;;;;;;;6048830;29;20301;-79
2023/08/13 07:48:51;;;;;;;5.32;3.67;;;;;;;;;;6049463;29;22822;-79
2023/08/13 07:51:55;;;;;;;4.07;3.67;;;;;;;;;;6052514;29;20298;-79
2023/08/13 07:54:59;;;;;;;4.93;3.88;;;;;;;;;;6052259;29;20309;-79
2023/08/13 07:58:03;;;;;;;10.52;4.07;;;;;;;;;;6051855;29;20294;-80
2023/08/13 08:01:07;;;;;;;4.00;3.67;;;;;;;;;;6051590;29;20295;-79
2023/08/13 08:04:13;;;;;;;7.25;4.20;;;;;;;;;;6051204;29;20335;-80
2023/08/13 08:07:18;;;;;;;10.05;4.53;;;;;;;;;;6051059;29;20294;-80
2023/08/13 08:10:23;;;;;;;6.70;5.10;;;;;;;;;;6057936;29;20296;-79
2023/08/13 08:13:26;;;;;;;9.40;5.70;;;;;;;;;;6074185;29;20297;-79
2023/08/13 08:16:33;;;;;;;8.18;5.55;;;;;;;;;;6075492;29;20285;-79
2023/08/13 08:19:39;;;;;;;15.70;7.18;;;;;;;;;;6074926;29;20399;-80
2023/08/13 08:22:43;;;;;;;9.35;6.18;;;;;;;;;;6077291;29;20585;-80
2023/08/13 08:25:47;;;;;;;15.30;7.35;;;;;;;;;;6070843;29;20300;-79
2023/08/13 08:28:51;;;;;;;8.38;6.70;;;;;;;;;;6071628;29;20508;-80
2023/08/13 08:31:55;;;;;;;11.50;6.78;;;;;;;;;;6072045;29;20309;-78
2023/08/13 08:35:00;;;;;;;8.27;6.63;;;;;;;;;;6053125;29;20489;-79
2023/08/13 08:38:04;;;;;;;9.02;6.47;;;;;;;;;;6047482;29;20306;-79
2023/08/13 08:41:09;;;;;;;6.88;6.03;;;;;;;;;;6047523;29;20293;-78
2023/08/13 08:44:18;;;;;;;7.35;6.38;;;;;;;;;;6049081;29;20301;-81
2023/08/13 08:47:23;;;;;;;8.05;6.78;;;;;;;;;;6053219;29;20305;-77
2023/08/13 08:50:29;;;;;;;8.50;6.55;;;;;;;;;;6059923;29;20293;-82
2023/08/13 08:53:34;;;;;;;12.60;7.15;;;;;;;;;;6060013;29;20257;-77
2023/08/13 08:56:38;;;;;;;7.60;6.60;;;;;;;;;;6060709;29;20246;-78
2023/08/13 08:59:42;;;;;;;6.00;5.38;;;;;;;;;;6058921;29;20310;-78
2023/08/13 09:02:45;;;;;;;6.63;6.10;;;;;;;;;;6059949;29;20285;-75
2023/08/13 09:05:51;;;;;;;7.38;5.13;;;;;;;;;;6058823;29;20306;-75
2023/08/13 09:08:55;;;;;;;5.50;4.88;;;;;;;;;;6058558;29;20301;-76
2023/08/13 09:12:00;;;;;;;5.65;5.28;;;;;;;;;;6081044;29;20301;-80
2023/08/13 09:15:05;;;;;;;7.55;5.13;;;;;;;;;;6084028;29;20298;-80
2023/08/13 09:18:10;;;;;;;4.97;4.60;;;;;;;;;;6083004;29;20277;-76
2023/08/13 09:21:16;;;;;;;5.63;3.95;;;;;;;;;;6084481;29;20272;-83
2023/08/13 09:24:20;;;;;;;4.22;3.92;;;;;;;;;;6083999;29;20257;-82
2023/08/13 09:27:24;;;;;;;4.10;3.90;;;;;;;;;;6084063;29;20254;-79
2023/08/13 09:30:30;;;;;;;4.10;4.00;;;;;;;;;;6083639;29;20268;-79
2023/08/13 09:33:34;;;;;;;3.85;3.65;;;;;;;;;;6077177;29;20245;-82
2023/08/13 09:36:39;;;;;;;4.00;3.80;;;;;;;;;;6059783;29;20231;-79
2023/08/13 09:39:43;;;;;;;4.03;3.80;;;;;;;;;;6054722;29;20298;-78
2023/08/13 09:42:47;;;;;;;3.95;3.72;;;;;;;;;;6037622;29;20238;-86
2023/08/13 09:45:51;;;;;;;3.72;3.55;;;;;;;;;;6053745;29;20590;-80
2023/08/13 09:48:56;;;;;;;3.33;3.22;;;;;;;;;;6051905;29;20346;-86
2023/08/13 09:52:08;;;;;;;4.80;2.80;;;;;;;;;;6051208;29;20313;-84
2023/08/13 09:55:13;;;;;;;3.10;3.00;;;;;;;;;;6048760;29;20302;-85
2023/08/13 09:58:19;;;;;;;2.63;2.60;;;;;;;;;;6050353;29;20294;-79
2023/08/13 10:01:23;;;;;;;2.38;2.28;;;;;;;;;;6050596;29;20297;-83
2023/08/13 10:04:30;;;;;;;2.67;2.53;;;;;;;;;;6049868;29;20293;-84
2023/08/13 10:07:36;;;;;;;2.53;2.22;;;;;;;;;;6050815;29;20293;-84
2023/08/13 10:10:41;;;;;;;2.40;2.25;;;;;;;;;;6060124;29;20297;-78
2023/08/13 10:13:44;;;;;;;2.25;2.25;;;;;;;;;;6073214;29;20585;-78
2023/08/13 10:16:48;;;;;;;2.30;2.28;;;;;;;;;;6074531;29;20297;-81
2023/08/13 10:19:53;;;;;;;2.55;2.50;;;;;;;;;;6073225;29;20301;-83
2023/08/13 10:23:01;;;;;;;2.20;2.00;;;;;;;;;;6070900;29;20531;-78
2023/08/13 10:26:05;;;;;;;2.45;2.38;;;;;;;;;;6074217;29;20292;-77
2023/08/13 10:29:16;;;;;;;2.58;2.20;;;;;;;;;;6072518;29;20492;-79
2023/08/13 10:32:24;;;;;;;2.60;2.40;;;;;;;;;;6072871;29;20301;-80
2023/08/13 10:35:30;;;;;;;1.77;1.77;;;;;;;;;;6052419;29;20306;-75
2023/08/13 10:38:35;;;;;;;2.35;2.15;;;;;;;;;;6048560;29;20297;-79
2023/08/13 10:41:39;;;;;;;2.10;2.10;;;;;;;;;;6050895;29;20301;-76
2023/08/13 10:44:43;;;;;;;2.13;2.13;;;;;;;;;;6048485;29;20301;-77
2023/08/13 10:47:49;;;;;;;2.00;2.00;;;;;;;;;;6048214;29;20297;-77
2023/08/13 10:50:55;;;;;;;1.55;1.55;;;;;;;;;;6049013;29;20297;-86
2023/08/13 10:54:01;;;;;;;2.65;1.70;;;;;;;;;;6047459;29;20321;-79
2023/08/13 10:57:05;;;;;;;1.60;1.60;;;;;;;;;;6048822;29;20318;-81
2023/08/13 11:00:15;;;;;;;1.73;1.73;;;;;;;;;;6049188;29;20306;-77
2023/08/13 11:03:20;;;;;;;1.67;1.67;;;;;;;;;;6046971;29;20294;-80
2023/08/13 11:06:27;;;;;;;1.52;1.52;;;;;;;;;;6039013;29;20310;-76
2023/08/13 11:09:33;;;;;;;1.20;1.20;;;;;;;;;;6023964;29;20298;-73
2023/08/13 11:12:38;;;;;;;3.15;1.48;;;;;;;;;;6047128;29;20273;-77
2023/08/13 11:15:49;;;;;;;1.13;1.13;;;;;;;;;;6046974;29;20326;-75
2023/08/13 11:18:53;;;;;;;2.90;1.20;;;;;;;;;;6046158;29;20302;-73
2023/08/13 11:21:57;;;;;;;1.15;1.15;;;;;;;;;;6047040;29;20301;-74
2023/08/13 11:25:03;;;;;;;1.10;1.10;;;;;;;;;;6060565;29;20400;-73
2023/08/13 11:28:07;;;;;;;1.10;1.10;;;;;;;;;;6045979;29;20301;-74
2023/08/13 11:31:11;;;;;;;1.00;1.00;;;;;;;;;;6046733;29;20293;-72
2023/08/13 11:34:15;;;;;;;1.20;1.20;;;;;;;;;;6035649;29;20302;-75
2023/08/13 11:37:19;;;;;;;1.20;1.20;;;;;;;;;;6023454;29;20366;-77
2023/08/13 11:40:24;;;;;;;0.95;0.95;;;;;;;;;;6023362;29;20298;-77
2023/08/13 11:43:29;;;;;;;1.30;0.95;;;;;;;;;;6023150;29;20298;-79
2023/08/13 11:46:51;;;;;;;0.90;0.90;;;;;;;;;;6023362;29;20319;-77
2023/08/13 11:49:57;;;;;;;1.02;0.85;;;;;;;;;;6023125;29;20298;-79
2023/08/13 11:53:10;;;;;;;1.20;1.20;;;;;;;;;;6021261;29;20321;-77
2023/08/13 11:56:15;;;;;;;1.20;1.20;;;;;;;;;;6023196;29;20299;-79
2023/08/13 11:59:24;;;;;;;1.50;1.40;;;;;;;;;;6022504;29;20298;-79
2023/08/13 12:02:28;;;;;;;1.05;1.05;;;;;;;;;;6023201;29;20300;-79
2023/08/13 12:05:33;;;;;;;1.38;1.30;;;;;;;;;;6027704;29;20317;-78
2023/08/13 12:08:37;;;;;;;1.00;1.00;;;;;;;;;;6045126;29;20309;-79
2023/08/13 12:11:43;;;;;;;1.05;1.05;;;;;;;;;;6063578;29;20302;-80
2023/08/13 12:14:47;;;;;;;0.80;0.80;;;;;;;;;;6068717;29;20309;-81
2023/08/13 12:17:51;;;;;;;0.93;0.93;;;;;;;;;;6068307;29;20308;-80
2023/08/13 12:20:55;;;;;;;0.90;0.90;;;;;;;;;;6068658;29;20292;-79
2023/08/13 12:23:59;;;;;;;0.90;0.90;;;;;;;;;;6068070;29;20554;-79
2023/08/13 12:27:04;;;;;;;1.00;1.00;;;;;;;;;;6068575;29;20301;-79
2023/08/13 12:30:09;;;;;;;1.00;1.00;;;;;;;;;;6068143;29;20407;-78
2023/08/13 12:33:13;;;;;;;1.10;1.10;;;;;;;;;;6063771;29;20297;-79
2023/08/13 12:36:17;;;;;;;1.15;1.15;;;;;;;;;;6046146;29;20301;-80
2023/08/13 12:39:21;;;;;;;0.98;0.98;;;;;;;;;;6047257;29;20306;-81
2023/08/13 12:42:26;;;;;;;1.17;1.17;;;;;;;;;;6046868;29;20380;-80
2023/08/13 12:45:30;;;;;;;1.10;0.95;;;;;;;;;;6034592;29;20321;-78
2023/08/13 12:48:35;;;;;;;0.80;0.80;;;;;;;;;;6045088;29;20297;-82
2023/08/13 12:51:39;;;;;;;1.00;1.00;;;;;;;;;;6045707;29;20287;-81
2023/08/13 12:54:43;;;;;;;0.90;0.90;;;;;;;;;;6045818;29;20457;-80
2023/08/13 12:57:48;;;;;;;0.90;0.90;;;;;;;;;;6044768;29;20250;-80
2023/08/13 13:00:52;;;;;;;1.00;1.00;;;;;;;;;;6046349;29;20583;-79
2023/08/13 13:03:56;;;;;;;0.80;0.80;;;;;;;;;;6045790;29;20285;-76
2023/08/13 13:07:00;;;;;;;0.90;0.90;;;;;;;;;;6044691;29;20317;-78
2023/08/13 13:10:05;;;;;;;0.90;0.90;;;;;;;;;;6049245;29;20577;-80
2023/08/13 13:13:10;;;;;;;0.90;0.90;;;;;;;;;;6067435;29;20293;-78
2023/08/13 13:16:14;;;;;;;1.20;1.00;;;;;;;;;;6069475;29;20380;-79
2023/08/13 13:19:18;;;;;;;1.20;0.80;;;;;;;;;;6071942;29;20309;-78
2023/08/13 13:22:23;;;;;;;0.90;0.90;;;;;;;;;;6072754;29;20585;-79
2023/08/13 13:25:27;;;;;;;1.63;1.33;;;;;;;;;;6072308;29;20565;-77
2023/08/13 13:28:33;;;;;;;1.10;1.10;;;;;;;;;;6072306;29;20304;-81
2023/08/13 13:31:37;;;;;;;0.90;0.90;;;;;;;;;;6073176;29;20309;-81
2023/08/13 13:34:41;;;;;;;0.82;0.82;;;;;;;;;;6057452;29;20309;-81
2023/08/13 13:37:44;;;;;;;1.85;1.08;;;;;;;;;;6050354;29;20297;-81
2023/08/13 13:40:48;;;;;;;1.00;1.00;;;;;;;;;;6049059;29;20360;-81
2023/08/13 13:43:54;;;;;;;0.80;0.80;;;;;;;;;;6051907;29;20298;-81
2023/08/13 13:46:57;;;;;;;0.80;0.80;;;;;;;;;;6050027;29;20602;-81
2023/08/13 13:50:03;;;;;;;1.13;0.88;;;;;;;;;;6049953;29;20305;-81
2023/08/13 13:53:07;;;;;;;0.70;0.70;;;;;;;;;;6050284;29;20301;-82
2023/08/13 13:56:22;;;;;;;0.88;0.88;;;;;;;;;;6049676;29;20306;-81
2023/08/13 13:59:28;;;;;;;0.80;0.80;;;;;;;;;;6049185;29;20590;-81
2023/08/13 14:02:31;;;;;;;1.80;1.00;;;;;;;;;;6048369;29;20301;-81
2023/08/13 14:05:35;;;;;;;0.88;0.88;;;;;;;;;;6049278;29;20310;-80
2023/08/13 14:08:39;;;;;;;1.67;0.90;;;;;;;;;;6048152;29;20301;-81
2023/08/13 14:11:43;;;;;;;1.50;0.90;;;;;;;;;;6064956;29;20581;-81
2023/08/13 14:14:48;;;;;;;1.00;1.00;;;;;;;;;;6070181;29;20312;-81
2023/08/13 14:17:52;;;;;;;1.27;0.70;;;;;;;;;;6071147;29;20305;-81
2023/08/13 14:20:56;;;;;;;2.15;0.68;;;;;;;;;;6071214;29;20300;-80
2023/08/13 14:24:00;;;;;;;0.70;0.70;;;;;;;;;;6069440;29;20500;-80
2023/08/13 14:27:04;;;;;;;0.90;0.90;;;;;;;;;;6071075;29;20392;-80
2023/08/13 14:30:11;;;;;;;2.38;0.95;;;;;;;;;;6070351;29;20304;-81
2023/08/13 14:33:15;;;;;;;0.77;0.77;;;;;;;;;;6066200;29;20293;-80
2023/08/13 14:36:19;;;;;;;0.70;0.70;;;;;;;;;;6047405;29;20302;-80
2023/08/13 14:39:23;;;;;;;0.80;0.80;;;;;;;;;;6047244;29;20301;-81
2023/08/13 14:42:26;;;;;;;0.80;0.80;;;;;;;;;;6047998;29;20313;-81
2023/08/13 14:45:32;;;;;;;0.80;0.80;;;;;;;;;;6046744;29;20302;-80
2023/08/13 14:48:36;;;;;;;0.90;0.90;;;;;;;;;;6046764;29;20293;-80
2023/08/13 14:51:39;;;;;;;0.85;0.80;;;;;;;;;;6046162;29;20436;-79
2023/08/13 14:54:48;;;;;;;0.93;0.93;;;;;;;;;;6046650;29;20422;-80
2023/08/13 14:57:52;;;;;;;0.95;0.95;;;;;;;;;;6046438;29;20302;-81
2023/08/13 15:00:57;;;;;;;1.20;1.10;;;;;;;;;;6047109;29;20507;-81
2023/08/13 15:04:01;;;;;;;0.75;0.75;;;;;;;;;;6047073;29;20321;-81
2023/08/13 15:07:05;;;;;;;1.10;1.10;;;;;;;;;;6047138;29;20297;-81
2023/08/13 15:10:09;;;;;;;1.63;1.40;;;;;;;;;;6052041;29;20297;-81
2023/08/13 15:13:12;;;;;;;1.27;1.27;;;;;;;;;;6069791;29;20296;-81
2023/08/13 15:16:18;;;;;;;1.10;1.10;;;;;;;;;;6070057;29;20335;-81
2023/08/13 15:19:22;;;;;;;3.30;1.02;;;;;;;;;;6070270;29;20293;-81
2023/08/13 15:22:26;;;;;;;1.00;1.00;;;;;;;;;;6071256;29;20593;-80
2023/08/13 15:25:31;;;;;;;1.13;1.13;;;;;;;;;;6071686;29;20293;-80
2023/08/13 15:28:54;;;;;;;0.93;0.90;;;;;;;;;;6071164;29;20305;-81
2023/08/13 15:32:00;;;;;;;2.20;1.10;;;;;;;;;;6069891;29;20324;-79
2023/08/13 15:35:04;;;;;;;0.90;0.90;;;;;;;;;;6051223;29;20593;-81
2023/08/13 15:38:08;;;;;;;0.88;0.88;;;;;;;;;;6045271;29;20305;-80
2023/08/13 15:41:12;;;;;;;1.05;0.77;;;;;;;;;;6046310;29;20302;-76
2023/08/13 15:44:16;;;;;;;0.80;0.80;;;;;;;;;;6045997;29;20301;-79
2023/08/13 15:47:21;;;;;;;0.90;0.90;;;;;;;;;;6030160;29;20476;-79
2023/08/13 15:50:25;;;;;;;0.90;0.90;;;;;;;;;;6045815;29;20306;-81
2023/08/13 15:53:29;;;;;;;0.98;0.98;;;;;;;;;;6046624;29;20290;-75
2023/08/13 15:56:32;;;;;;;1.02;1.00;;;;;;;;;;6044920;29;20301;-79
2023/08/13 15:59:37;;;;;;;1.10;1.10;;;;;;;;;;6046446;29;20302;-83
2023/08/13 16:02:43;;;;;;;1.20;1.20;;;;;;;;;;6046388;29;20314;-84
2023/08/13 16:05:46;;;;;;;1.00;1.00;;;;;;;;;;6045606;29;20313;-78
2023/08/13 16:08:50;;;;;;;4.00;1.52;;;;;;;;;;6046415;29;20317;-78
2023/08/13 16:11:54;;;;;;;1.13;1.13;;;;;;;;;;6046669;29;20301;-78
2023/08/13 16:15:06;;;;;;;1.60;1.60;;;;;;;;;;6045708;29;20305;-78
2023/08/13 16:18:11;;;;;;;1.77;1.27;;;;;;;;;;6045608;29;20431;-80
2023/08/13 16:21:15;;;;;;;2.13;2.10;;;;;;;;;;6046534;29;20298;-82
2023/08/13 16:24:19;;;;;;;2.10;2.10;;;;;;;;;;6028744;29;20317;-80
2023/08/13 16:27:23;;;;;;;1.73;1.73;;;;;;;;;;6047516;29;20302;-77
2023/08/13 16:30:29;;;;;;;2.17;2.13;;;;;;;;;;6047193;29;20511;-83
2023/08/13 16:33:35;;;;;;;4.03;2.55;;;;;;;;;;6053274;29;20301;-82
2023/08/13 16:36:39;;;;;;;2.47;2.03;;;;;;;;;;6069065;29;20574;-73
2023/08/13 16:39:43;;;;;;;3.75;3.65;;;;;;;;;;6068417;29;20300;-76
2023/08/13 16:42:46;;;;;;;2.00;2.00;;;;;;;;;;6068433;29;20254;-76
2023/08/13 16:46:09;;;;;;;3.53;3.28;;;;;;;;;;6067400;29;20289;-77
2023/08/13 16:49:14;;;;;;;2.88;2.78;;;;;;;;;;6068597;29;20304;-81
2023/08/13 16:52:18;;;;;;;1.75;1.70;;;;;;;;;;6076210;29;20297;-81
2023/08/13 16:55:23;;;;;;;1.80;1.70;;;;;;;;;;6076866;29;20305;-74
2023/08/13 16:58:27;;;;;;;2.28;2.17;;;;;;;;;;6073483;29;20285;-80
2023/08/13 17:01:31;;;;;;;2.20;2.05;;;;;;;;;;6073890;29;20296;-82
2023/08/13 17:04:36;;;;;;;2.40;2.20;;;;;;;;;;6073405;29;20342;-80
2023/08/13 17:07:40;;;;;;;3.20;2.33;;;;;;;;;;6073772;29;20304;-77
2023/08/13 17:10:44;;;;;;;2.70;2.38;;;;;;;;;;6063373;29;20574;-77
2023/08/13 17:13:48;;;;;;;10.48;2.47;;;;;;;;;;6050433;29;20305;-74
2023/08/13 17:16:52;;;;;;;3.45;3.20;;;;;;;;;;6050373;29;20313;-77
2023/08/13 17:19:58;;;;;;;4.05;2.63;;;;;;;;;;6050570;29;20305;-80
2023/08/13 17:23:02;;;;;;;5.82;2.60;;;;;;;;;;6049689;29;20607;-80
2023/08/13 17:26:06;;;;;;;4.60;2.60;;;;;;;;;;6050790;29;20309;-82
2023/08/13 17:29:10;;;;;;;3.47;2.90;;;;;;;;;;6050273;29;20301;-81
2023/08/13 17:32:14;;;;;;;3.97;2.30;;;;;;;;;;6051353;29;20305;-79
2023/08/13 17:35:20;;;;;;;2.45;2.22;;;;;;;;;;6068202;29;20314;-82
2023/08/13 17:38:24;;;;;;;5.55;2.30;;;;;;;;;;6073144;29;20297;-80
2023/08/13 17:41:28;;;;;;;3.88;2.47;;;;;;;;;;6074439;29;20297;-82
2023/08/13 17:44:32;;;;;;;3.45;2.10;;;;;;;;;;6074951;29;20301;-82
2023/08/13 17:47:36;;;;;;;2.03;2.03;;;;;;;;;;6076240;29;20293;-81
2023/08/13 17:50:41;;;;;;;2.28;2.28;;;;;;;;;;6078918;29;20305;-79
2023/08/13 17:53:46;;;;;;;3.88;2.17;;;;;;;;;;6081960;29;20297;-82
2023/08/13 17:56:50;;;;;;;2.63;2.22;;;;;;;;;;6082168;29;20301;-82
2023/08/13 17:59:54;;;;;;;3.08;2.50;;;;;;;;;;6081295;29;20293;-81
2023/08/13 18:03:18;;;;;;;3.15;2.60;;;;;;;;;;6079575;29;20297;-81
2023/08/13 18:06:24;;;;;;;2.50;2.40;;;;;;;;;;6079267;29;20312;-83
2023/08/13 18:09:28;;;;;;;2.55;2.45;;;;;;;;;;6080688;29;20305;-80
2023/08/13 18:12:33;;;;;;;5.45;2.45;;;;;;;;;;6058319;29;20479;-82
2023/08/13 18:15:36;;;;;;;7.13;3.20;;;;;;;;;;6059299;29;20307;-83
2023/08/13 18:18:43;;;;;;;5.32;2.92;;;;;;;;;;6061036;29;20327;-82
2023/08/13 18:21:48;;;;;;;6.03;2.83;;;;;;;;;;6059251;29;20246;-82
2023/08/13 18:24:52;;;;;;;6.28;3.20;;;;;;;;;;6040621;29;20302;-84
2023/08/13 18:27:56;;;;;;;4.97;3.00;;;;;;;;;;6056100;29;20289;-81